sensor_id;sensor_type;location;lat;lon;timestamp;P1;durP1;ratioP1;P2;durP2;ratioP2
18228;SDS011;9239;50.932;3.142;2023-05-13T00:01:13;35.53;;;31.77;;
18228;SDS011;9239;50.932;3.142;2023-05-13T00:03:41;40.83;;;32.10;;
18228;SDS011;9239;50.932;3.142;2023-05-13T00:06:08;43.90;;;32.17;;
18228;SDS011;9239;50.932;3.142;2023-05-13T00:08:35;40.70;;;33.40;;
18228;SDS011;9239;50.932;3.142;2023-05-13T00:11:03;42.97;;;30.87;;
18228;SDS011;9239;50.932;3.142;2023-05-13T00:13:30;41.47;;;31.43;;
18228;SDS011;9239;50.932;3.142;2023-05-13T00:15:57;48.27;;;34.40;;
18228;SDS011;9239;50.932;3.142;2023-05-13T00:18:24;42.63;;;31.50;;
18228;SDS011;9239;50.932;3.142;2023-05-13T00:20:52;40.80;;;31.53;;
18228;SDS011;9239;50.932;3.142;2023-05-13T00:23:20;44.60;;;32.17;;
18228;SDS011;9239;50.932;3.142;2023-05-13T00:25:47;48.07;;;33.83;;
18228;SDS011;9239;50.932;3.142;2023-05-13T00:28:15;44.13;;;30.20;;
18228;SDS011;9239;50.932;3.142;2023-05-13T00:30:43;42.43;;;31.10;;
18228;SDS011;9239;50.932;3.142;2023-05-13T00:33:11;41.00;;;30.10;;
18228;SDS011;9239;50.932;3.142;2023-05-13T00:35:38;48.80;;;29.63;;
18228;SDS011;9239;50.932;3.142;2023-05-13T00:38:05;38.50;;;29.17;;
18228;SDS011;9239;50.932;3.142;2023-05-13T00:40:32;42.17;;;28.40;;
18228;SDS011;9239;50.932;3.142;2023-05-13T00:43:03;36.57;;;28.27;;
18228;SDS011;9239;50.932;3.142;2023-05-13T00:45:32;32.57;;;26.73;;
18228;SDS011;9239;50.932;3.142;2023-05-13T00:48:01;39.03;;;27.70;;
18228;SDS011;9239;50.932;3.142;2023-05-13T00:50:31;43.67;;;28.33;;
18228;SDS011;9239;50.932;3.142;2023-05-13T00:52:59;41.17;;;27.83;;
18228;SDS011;9239;50.932;3.142;2023-05-13T00:55:27;33.77;;;26.63;;
18228;SDS011;9239;50.932;3.142;2023-05-13T00:57:53;42.30;;;28.30;;
18228;SDS011;9239;50.932;3.142;2023-05-13T01:00:20;37.33;;;25.90;;
18228;SDS011;9239;50.932;3.142;2023-05-13T01:02:52;36.07;;;26.07;;
18228;SDS011;9239;50.932;3.142;2023-05-13T01:05:26;37.27;;;27.07;;
18228;SDS011;9239;50.932;3.142;2023-05-13T01:08:00;39.70;;;27.00;;
18228;SDS011;9239;50.932;3.142;2023-05-13T01:10:35;36.87;;;25.90;;
18228;SDS011;9239;50.932;3.142;2023-05-13T01:13:08;40.57;;;26.80;;
18228;SDS011;9239;50.932;3.142;2023-05-13T01:15:38;42.07;;;28.77;;
18228;SDS011;9239;50.932;3.142;2023-05-13T01:18:09;38.80;;;28.33;;
18228;SDS011;9239;50.932;3.142;2023-05-13T01:20:41;36.83;;;27.33;;
18228;SDS011;9239;50.932;3.142;2023-05-13T01:23:10;48.83;;;28.70;;
18228;SDS011;9239;50.932;3.142;2023-05-13T01:25:38;40.13;;;29.80;;
18228;SDS011;9239;50.932;3.142;2023-05-13T01:28:06;38.20;;;26.43;;
18228;SDS011;9239;50.932;3.142;2023-05-13T01:30:33;43.33;;;27.67;;
18228;SDS011;9239;50.932;3.142;2023-05-13T01:33:01;44.33;;;28.97;;
18228;SDS011;9239;50.932;3.142;2023-05-13T01:35:29;39.47;;;26.97;;
18228;SDS011;9239;50.932;3.142;2023-05-13T01:37:57;40.00;;;28.83;;
18228;SDS011;9239;50.932;3.142;2023-05-13T01:40:26;41.70;;;28.37;;
18228;SDS011;9239;50.932;3.142;2023-05-13T01:42:54;42.17;;;27.47;;
18228;SDS011;9239;50.932;3.142;2023-05-13T01:45:21;47.13;;;30.23;;
18228;SDS011;9239;50.932;3.142;2023-05-13T01:47:48;39.90;;;27.57;;
18228;SDS011;9239;50.932;3.142;2023-05-13T01:50:15;34.73;;;28.37;;
18228;SDS011;9239;50.932;3.142;2023-05-13T01:52:42;40.10;;;27.77;;
18228;SDS011;9239;50.932;3.142;2023-05-13T01:55:09;43.20;;;29.27;;
18228;SDS011;9239;50.932;3.142;2023-05-13T01:57:38;42.80;;;28.93;;
18228;SDS011;9239;50.932;3.142;2023-05-13T02:00:06;38.03;;;28.10;;
18228;SDS011;9239;50.932;3.142;2023-05-13T02:02:33;43.27;;;26.67;;
18228;SDS011;9239;50.932;3.142;2023-05-13T02:05:00;46.47;;;28.33;;
18228;SDS011;9239;50.932;3.142;2023-05-13T02:07:27;40.00;;;26.53;;
18228;SDS011;9239;50.932;3.142;2023-05-13T02:09:54;45.93;;;29.97;;
18228;SDS011;9239;50.932;3.142;2023-05-13T02:12:24;44.23;;;28.57;;
18228;SDS011;9239;50.932;3.142;2023-05-13T02:14:52;41.77;;;29.27;;
18228;SDS011;9239;50.932;3.142;2023-05-13T02:17:19;39.80;;;29.53;;
18228;SDS011;9239;50.932;3.142;2023-05-13T02:19:47;39.57;;;29.70;;
18228;SDS011;9239;50.932;3.142;2023-05-13T02:22:14;39.10;;;30.17;;
18228;SDS011;9239;50.932;3.142;2023-05-13T02:24:41;47.77;;;30.20;;
18228;SDS011;9239;50.932;3.142;2023-05-13T02:27:08;42.60;;;29.67;;
18228;SDS011;9239;50.932;3.142;2023-05-13T02:29:36;49.33;;;32.43;;
18228;SDS011;9239;50.932;3.142;2023-05-13T02:32:05;41.17;;;30.87;;
18228;SDS011;9239;50.932;3.142;2023-05-13T02:34:32;43.73;;;32.67;;
18228;SDS011;9239;50.932;3.142;2023-05-13T02:37:01;44.87;;;34.30;;
18228;SDS011;9239;50.932;3.142;2023-05-13T02:39:29;44.70;;;31.77;;
18228;SDS011;9239;50.932;3.142;2023-05-13T02:41:55;44.47;;;32.73;;
18228;SDS011;9239;50.932;3.142;2023-05-13T02:44:23;40.37;;;31.80;;
18228;SDS011;9239;50.932;3.142;2023-05-13T02:46:50;43.83;;;33.33;;
18228;SDS011;9239;50.932;3.142;2023-05-13T02:49:19;45.03;;;32.87;;
18228;SDS011;9239;50.932;3.142;2023-05-13T02:51:46;42.90;;;33.07;;
18228;SDS011;9239;50.932;3.142;2023-05-13T02:54:13;47.10;;;34.40;;
18228;SDS011;9239;50.932;3.142;2023-05-13T02:56:40;43.20;;;33.03;;
18228;SDS011;9239;50.932;3.142;2023-05-13T02:59:06;42.80;;;32.30;;
18228;SDS011;9239;50.932;3.142;2023-05-13T03:01:33;45.40;;;34.20;;
18228;SDS011;9239;50.932;3.142;2023-05-13T03:04:00;50.93;;;34.73;;
18228;SDS011;9239;50.932;3.142;2023-05-13T03:06:29;48.03;;;31.97;;
18228;SDS011;9239;50.932;3.142;2023-05-13T03:08:56;43.70;;;31.23;;
18228;SDS011;9239;50.932;3.142;2023-05-13T03:11:23;52.83;;;33.40;;
18228;SDS011;9239;50.932;3.142;2023-05-13T03:13:50;48.10;;;30.90;;
18228;SDS011;9239;50.932;3.142;2023-05-13T03:16:17;45.87;;;32.10;;
18228;SDS011;9239;50.932;3.142;2023-05-13T03:18:44;46.73;;;30.53;;
18228;SDS011;9239;50.932;3.142;2023-05-13T03:21:11;45.60;;;29.87;;
18228;SDS011;9239;50.932;3.142;2023-05-13T03:23:39;40.13;;;31.80;;
18228;SDS011;9239;50.932;3.142;2023-05-13T03:26:06;46.90;;;31.60;;
18228;SDS011;9239;50.932;3.142;2023-05-13T03:28:33;48.07;;;30.03;;
18228;SDS011;9239;50.932;3.142;2023-05-13T03:31:00;49.23;;;30.73;;
18228;SDS011;9239;50.932;3.142;2023-05-13T03:33:27;39.60;;;29.73;;
18228;SDS011;9239;50.932;3.142;2023-05-13T03:35:54;45.20;;;31.50;;
18228;SDS011;9239;50.932;3.142;2023-05-13T03:38:21;42.83;;;30.10;;
18228;SDS011;9239;50.932;3.142;2023-05-13T03:40:49;41.40;;;29.90;;
18228;SDS011;9239;50.932;3.142;2023-05-13T03:43:16;43.23;;;28.00;;
18228;SDS011;9239;50.932;3.142;2023-05-13T03:45:43;40.37;;;28.10;;
18228;SDS011;9239;50.932;3.142;2023-05-13T03:48:12;43.17;;;28.80;;
18228;SDS011;9239;50.932;3.142;2023-05-13T03:50:40;36.73;;;27.83;;
18228;SDS011;9239;50.932;3.142;2023-05-13T03:53:07;41.23;;;29.47;;
18228;SDS011;9239;50.932;3.142;2023-05-13T03:55:35;44.67;;;30.50;;
18228;SDS011;9239;50.932;3.142;2023-05-13T03:58:10;43.20;;;28.93;;
18228;SDS011;9239;50.932;3.142;2023-05-13T04:00:38;43.43;;;31.03;;
18228;SDS011;9239;50.932;3.142;2023-05-13T04:03:07;45.10;;;29.43;;
18228;SDS011;9239;50.932;3.142;2023-05-13T04:05:35;50.43;;;30.60;;
18228;SDS011;9239;50.932;3.142;2023-05-13T04:08:02;44.43;;;29.73;;
18228;SDS011;9239;50.932;3.142;2023-05-13T04:10:29;41.63;;;29.80;;
18228;SDS011;9239;50.932;3.142;2023-05-13T04:12:55;49.83;;;30.80;;
18228;SDS011;9239;50.932;3.142;2023-05-13T04:15:24;43.43;;;31.30;;
18228;SDS011;9239;50.932;3.142;2023-05-13T04:17:51;42.10;;;29.70;;
18228;SDS011;9239;50.932;3.142;2023-05-13T04:20:18;41.17;;;30.03;;
18228;SDS011;9239;50.932;3.142;2023-05-13T04:22:45;41.57;;;29.20;;
18228;SDS011;9239;50.932;3.142;2023-05-13T04:25:13;43.30;;;30.53;;
18228;SDS011;9239;50.932;3.142;2023-05-13T04:27:40;41.33;;;28.93;;
18228;SDS011;9239;50.932;3.142;2023-05-13T04:30:07;40.33;;;28.70;;
18228;SDS011;9239;50.932;3.142;2023-05-13T04:32:36;38.33;;;27.53;;
18228;SDS011;9239;50.932;3.142;2023-05-13T04:35:03;38.00;;;28.80;;
18228;SDS011;9239;50.932;3.142;2023-05-13T04:37:32;36.37;;;29.27;;
18228;SDS011;9239;50.932;3.142;2023-05-13T04:39:59;40.93;;;28.17;;
18228;SDS011;9239;50.932;3.142;2023-05-13T04:42:26;34.93;;;27.23;;
18228;SDS011;9239;50.932;3.142;2023-05-13T04:44:53;38.50;;;28.67;;
18228;SDS011;9239;50.932;3.142;2023-05-13T04:47:21;40.43;;;28.50;;
18228;SDS011;9239;50.932;3.142;2023-05-13T04:49:49;37.23;;;27.23;;
18228;SDS011;9239;50.932;3.142;2023-05-13T04:52:16;46.60;;;29.83;;
18228;SDS011;9239;50.932;3.142;2023-05-13T04:54:43;40.70;;;27.37;;
18228;SDS011;9239;50.932;3.142;2023-05-13T04:57:10;34.90;;;26.00;;
18228;SDS011;9239;50.932;3.142;2023-05-13T04:59:37;40.67;;;25.20;;
18228;SDS011;9239;50.932;3.142;2023-05-13T05:02:04;38.83;;;26.33;;
18228;SDS011;9239;50.932;3.142;2023-05-13T05:04:31;34.20;;;25.63;;
18228;SDS011;9239;50.932;3.142;2023-05-13T05:06:59;34.87;;;25.27;;
18228;SDS011;9239;50.932;3.142;2023-05-13T05:09:26;36.47;;;23.50;;
18228;SDS011;9239;50.932;3.142;2023-05-13T05:11:54;34.00;;;25.00;;
18228;SDS011;9239;50.932;3.142;2023-05-13T05:14:21;35.97;;;24.13;;
18228;SDS011;9239;50.932;3.142;2023-05-13T05:16:48;34.70;;;24.13;;
18228;SDS011;9239;50.932;3.142;2023-05-13T05:19:15;35.27;;;23.23;;
18228;SDS011;9239;50.932;3.142;2023-05-13T05:21:41;32.47;;;25.27;;
18228;SDS011;9239;50.932;3.142;2023-05-13T05:24:10;36.37;;;21.80;;
18228;SDS011;9239;50.932;3.142;2023-05-13T05:26:37;26.77;;;19.97;;
18228;SDS011;9239;50.932;3.142;2023-05-13T05:29:04;27.00;;;22.77;;
18228;SDS011;9239;50.932;3.142;2023-05-13T05:31:31;31.70;;;21.13;;
18228;SDS011;9239;50.932;3.142;2023-05-13T05:33:58;31.37;;;21.40;;
18228;SDS011;9239;50.932;3.142;2023-05-13T05:36:26;30.43;;;18.40;;
18228;SDS011;9239;50.932;3.142;2023-05-13T05:38:53;27.30;;;20.97;;
18228;SDS011;9239;50.932;3.142;2023-05-13T05:41:22;24.43;;;19.93;;
18228;SDS011;9239;50.932;3.142;2023-05-13T05:43:49;35.53;;;21.30;;
18228;SDS011;9239;50.932;3.142;2023-05-13T05:46:16;30.47;;;19.43;;
18228;SDS011;9239;50.932;3.142;2023-05-13T05:48:43;32.43;;;19.00;;
18228;SDS011;9239;50.932;3.142;2023-05-13T05:51:09;27.07;;;20.07;;
18228;SDS011;9239;50.932;3.142;2023-05-13T05:53:36;31.03;;;19.10;;
18228;SDS011;9239;50.932;3.142;2023-05-13T05:56:05;21.87;;;17.07;;
18228;SDS011;9239;50.932;3.142;2023-05-13T05:58:33;26.93;;;18.10;;
18228;SDS011;9239;50.932;3.142;2023-05-13T06:01:01;29.17;;;18.17;;
18228;SDS011;9239;50.932;3.142;2023-05-13T06:03:28;25.57;;;18.43;;
18228;SDS011;9239;50.932;3.142;2023-05-13T06:05:55;24.50;;;16.93;;
18228;SDS011;9239;50.932;3.142;2023-05-13T06:08:22;24.13;;;18.80;;
18228;SDS011;9239;50.932;3.142;2023-05-13T06:10:54;25.23;;;18.07;;
18228;SDS011;9239;50.932;3.142;2023-05-13T06:13:22;28.43;;;17.80;;
18228;SDS011;9239;50.932;3.142;2023-05-13T06:15:50;28.13;;;17.67;;
18228;SDS011;9239;50.932;3.142;2023-05-13T06:18:17;27.77;;;16.70;;
18228;SDS011;9239;50.932;3.142;2023-05-13T06:20:44;25.10;;;17.07;;
18228;SDS011;9239;50.932;3.142;2023-05-13T06:23:11;27.07;;;17.20;;
18228;SDS011;9239;50.932;3.142;2023-05-13T06:25:39;25.90;;;16.77;;
18228;SDS011;9239;50.932;3.142;2023-05-13T06:28:07;23.50;;;17.33;;
18228;SDS011;9239;50.932;3.142;2023-05-13T06:30:36;24.20;;;17.33;;
18228;SDS011;9239;50.932;3.142;2023-05-13T06:33:04;28.10;;;17.47;;
18228;SDS011;9239;50.932;3.142;2023-05-13T06:35:34;25.93;;;16.27;;
18228;SDS011;9239;50.932;3.142;2023-05-13T06:38:01;27.30;;;17.57;;
18228;SDS011;9239;50.932;3.142;2023-05-13T06:40:28;34.03;;;17.73;;
18228;SDS011;9239;50.932;3.142;2023-05-13T06:42:55;36.20;;;18.33;;
18228;SDS011;9239;50.932;3.142;2023-05-13T06:45:22;27.00;;;17.47;;
18228;SDS011;9239;50.932;3.142;2023-05-13T06:47:50;25.03;;;16.73;;
18228;SDS011;9239;50.932;3.142;2023-05-13T06:50:18;26.10;;;17.02;;
18228;SDS011;9239;50.932;3.142;2023-05-13T06:52:45;26.15;;;16.45;;
18228;SDS011;9239;50.932;3.142;2023-05-13T06:55:12;25.25;;;16.10;;
18228;SDS011;9239;50.932;3.142;2023-05-13T06:57:40;21.65;;;14.98;;
18228;SDS011;9239;50.932;3.142;2023-05-13T07:00:11;21.77;;;15.13;;
18228;SDS011;9239;50.932;3.142;2023-05-13T07:02:38;19.92;;;13.52;;
18228;SDS011;9239;50.932;3.142;2023-05-13T07:05:05;25.02;;;14.48;;
18228;SDS011;9239;50.932;3.142;2023-05-13T07:07:34;23.23;;;13.35;;
18228;SDS011;9239;50.932;3.142;2023-05-13T07:10:01;16.50;;;12.88;;
18228;SDS011;9239;50.932;3.142;2023-05-13T07:12:29;19.88;;;13.88;;
18228;SDS011;9239;50.932;3.142;2023-05-13T07:14:56;17.48;;;11.80;;
18228;SDS011;9239;50.932;3.142;2023-05-13T07:17:23;16.85;;;11.85;;
18228;SDS011;9239;50.932;3.142;2023-05-13T07:19:50;21.35;;;11.25;;
18228;SDS011;9239;50.932;3.142;2023-05-13T07:22:17;18.00;;;11.13;;
18228;SDS011;9239;50.932;3.142;2023-05-13T07:24:45;13.50;;;10.70;;
18228;SDS011;9239;50.932;3.142;2023-05-13T07:27:12;17.55;;;10.75;;
18228;SDS011;9239;50.932;3.142;2023-05-13T07:29:39;19.48;;;10.52;;
18228;SDS011;9239;50.932;3.142;2023-05-13T07:32:06;18.92;;;11.15;;
18228;SDS011;9239;50.932;3.142;2023-05-13T07:34:34;15.90;;;10.50;;
18228;SDS011;9239;50.932;3.142;2023-05-13T07:37:01;16.67;;;10.52;;
18228;SDS011;9239;50.932;3.142;2023-05-13T07:39:29;14.32;;;9.48;;
18228;SDS011;9239;50.932;3.142;2023-05-13T07:41:57;14.68;;;10.52;;
18228;SDS011;9239;50.932;3.142;2023-05-13T07:44:24;15.23;;;9.70;;
18228;SDS011;9239;50.932;3.142;2023-05-13T07:46:51;20.00;;;10.32;;
18228;SDS011;9239;50.932;3.142;2023-05-13T07:49:18;17.17;;;10.00;;
18228;SDS011;9239;50.932;3.142;2023-05-13T07:51:46;23.60;;;11.32;;
18228;SDS011;9239;50.932;3.142;2023-05-13T07:54:13;20.77;;;10.38;;
18228;SDS011;9239;50.932;3.142;2023-05-13T07:56:40;14.60;;;9.70;;
18228;SDS011;9239;50.932;3.142;2023-05-13T07:59:09;16.42;;;10.80;;
18228;SDS011;9239;50.932;3.142;2023-05-13T08:01:36;20.52;;;9.82;;
18228;SDS011;9239;50.932;3.142;2023-05-13T08:04:03;16.15;;;9.80;;
18228;SDS011;9239;50.932;3.142;2023-05-13T08:06:30;15.63;;;10.48;;
18228;SDS011;9239;50.932;3.142;2023-05-13T08:09:00;17.92;;;10.32;;
18228;SDS011;9239;50.932;3.142;2023-05-13T08:11:27;16.40;;;9.40;;
18228;SDS011;9239;50.932;3.142;2023-05-13T08:13:54;16.48;;;9.30;;
18228;SDS011;9239;50.932;3.142;2023-05-13T08:16:23;12.57;;;8.10;;
18228;SDS011;9239;50.932;3.142;2023-05-13T08:18:49;12.10;;;8.90;;
18228;SDS011;9239;50.932;3.142;2023-05-13T08:21:16;9.88;;;8.75;;
18228;SDS011;9239;50.932;3.142;2023-05-13T08:23:43;14.55;;;8.82;;
18228;SDS011;9239;50.932;3.142;2023-05-13T08:26:10;18.48;;;9.77;;
18228;SDS011;9239;50.932;3.142;2023-05-13T08:28:37;14.05;;;8.95;;
18228;SDS011;9239;50.932;3.142;2023-05-13T08:31:04;15.10;;;9.40;;
18228;SDS011;9239;50.932;3.142;2023-05-13T08:33:33;16.02;;;9.45;;
18228;SDS011;9239;50.932;3.142;2023-05-13T08:36:00;13.82;;;9.43;;
18228;SDS011;9239;50.932;3.142;2023-05-13T08:38:27;14.50;;;9.60;;
18228;SDS011;9239;50.932;3.142;2023-05-13T08:40:54;14.98;;;9.80;;
18228;SDS011;9239;50.932;3.142;2023-05-13T08:43:22;15.48;;;10.82;;
18228;SDS011;9239;50.932;3.142;2023-05-13T08:45:50;12.52;;;10.25;;
18228;SDS011;9239;50.932;3.142;2023-05-13T08:48:18;13.60;;;9.65;;
18228;SDS011;9239;50.932;3.142;2023-05-13T08:50:48;15.23;;;9.77;;
18228;SDS011;9239;50.932;3.142;2023-05-13T08:53:15;16.25;;;10.65;;
18228;SDS011;9239;50.932;3.142;2023-05-13T08:55:43;10.95;;;9.38;;
18228;SDS011;9239;50.932;3.142;2023-05-13T08:58:10;14.60;;;9.07;;
18228;SDS011;9239;50.932;3.142;2023-05-13T09:00:37;14.27;;;9.40;;
18228;SDS011;9239;50.932;3.142;2023-05-13T09:03:04;13.10;;;9.05;;
18228;SDS011;9239;50.932;3.142;2023-05-13T09:05:32;13.50;;;9.70;;
18228;SDS011;9239;50.932;3.142;2023-05-13T09:08:00;12.98;;;10.07;;
18228;SDS011;9239;50.932;3.142;2023-05-13T09:10:33;14.55;;;10.13;;
18228;SDS011;9239;50.932;3.142;2023-05-13T09:13:00;14.05;;;11.25;;
18228;SDS011;9239;50.932;3.142;2023-05-13T09:15:27;13.50;;;11.50;;
18228;SDS011;9239;50.932;3.142;2023-05-13T09:17:54;12.40;;;11.25;;
18228;SDS011;9239;50.932;3.142;2023-05-13T09:20:24;15.85;;;11.40;;
18228;SDS011;9239;50.932;3.142;2023-05-13T09:22:52;11.90;;;10.02;;
18228;SDS011;9239;50.932;3.142;2023-05-13T09:25:22;14.32;;;11.30;;
18228;SDS011;9239;50.932;3.142;2023-05-13T09:27:52;14.95;;;10.27;;
18228;SDS011;9239;50.932;3.142;2023-05-13T09:30:22;12.88;;;10.88;;
18228;SDS011;9239;50.932;3.142;2023-05-13T09:33:06;12.75;;;11.10;;
18228;SDS011;9239;50.932;3.142;2023-05-13T09:35:35;11.93;;;10.25;;
18228;SDS011;9239;50.932;3.142;2023-05-13T09:38:13;16.55;;;13.30;;
18228;SDS011;9239;50.932;3.142;2023-05-13T09:40:49;16.60;;;12.32;;
18228;SDS011;9239;50.932;3.142;2023-05-13T09:43:17;14.52;;;13.02;;
18228;SDS011;9239;50.932;3.142;2023-05-13T09:45:45;13.20;;;11.00;;
18228;SDS011;9239;50.932;3.142;2023-05-13T09:48:12;14.07;;;12.60;;
18228;SDS011;9239;50.932;3.142;2023-05-13T09:50:45;17.02;;;12.07;;
18228;SDS011;9239;50.932;3.142;2023-05-13T09:53:47;14.43;;;12.63;;
18228;SDS011;9239;50.932;3.142;2023-05-13T09:56:17;15.00;;;13.32;;
18228;SDS011;9239;50.932;3.142;2023-05-13T09:58:49;13.20;;;11.80;;
18228;SDS011;9239;50.932;3.142;2023-05-13T10:01:17;14.52;;;12.75;;
18228;SDS011;9239;50.932;3.142;2023-05-13T10:03:45;18.15;;;13.30;;
18228;SDS011;9239;50.932;3.142;2023-05-13T10:06:13;13.30;;;12.07;;
18228;SDS011;9239;50.932;3.142;2023-05-13T10:08:42;17.35;;;13.00;;
18228;SDS011;9239;50.932;3.142;2023-05-13T10:11:11;20.70;;;14.23;;
18228;SDS011;9239;50.932;3.142;2023-05-13T10:13:41;15.45;;;13.07;;
18228;SDS011;9239;50.932;3.142;2023-05-13T10:16:12;17.38;;;14.07;;
18228;SDS011;9239;50.932;3.142;2023-05-13T10:18:40;17.95;;;14.02;;
18228;SDS011;9239;50.932;3.142;2023-05-13T10:21:08;16.30;;;14.60;;
18228;SDS011;9239;50.932;3.142;2023-05-13T10:23:35;14.23;;;12.77;;
18228;SDS011;9239;50.932;3.142;2023-05-13T10:26:02;14.10;;;12.70;;
18228;SDS011;9239;50.932;3.142;2023-05-13T10:28:32;16.05;;;14.10;;
18228;SDS011;9239;50.932;3.142;2023-05-13T10:31:00;15.63;;;13.90;;
18228;SDS011;9239;50.932;3.142;2023-05-13T10:33:27;17.75;;;14.90;;
18228;SDS011;9239;50.932;3.142;2023-05-13T10:35:59;16.75;;;13.88;;
18228;SDS011;9239;50.932;3.142;2023-05-13T10:38:37;16.98;;;14.95;;
18228;SDS011;9239;50.932;3.142;2023-05-13T10:41:16;17.52;;;14.38;;
18228;SDS011;9239;50.932;3.142;2023-05-13T10:44:00;15.57;;;13.85;;
18228;SDS011;9239;50.932;3.142;2023-05-13T10:46:30;17.98;;;15.25;;
18228;SDS011;9239;50.932;3.142;2023-05-13T10:49:03;16.20;;;13.85;;
18228;SDS011;9239;50.932;3.142;2023-05-13T10:51:31;17.35;;;15.07;;
18228;SDS011;9239;50.932;3.142;2023-05-13T10:53:58;15.55;;;13.82;;
18228;SDS011;9239;50.932;3.142;2023-05-13T10:56:25;17.33;;;15.43;;
18228;SDS011;9239;50.932;3.142;2023-05-13T10:58:56;18.30;;;14.52;;
18228;SDS011;9239;50.932;3.142;2023-05-13T11:01:25;18.52;;;15.45;;
18228;SDS011;9239;50.932;3.142;2023-05-13T11:03:55;17.13;;;15.30;;
18228;SDS011;9239;50.932;3.142;2023-05-13T11:06:23;17.90;;;16.08;;
18228;SDS011;9239;50.932;3.142;2023-05-13T11:08:55;18.17;;;13.85;;
18228;SDS011;9239;50.932;3.142;2023-05-13T11:11:29;18.50;;;14.93;;
18228;SDS011;9239;50.932;3.142;2023-05-13T11:14:12;20.05;;;15.57;;
18228;SDS011;9239;50.932;3.142;2023-05-13T11:16:44;16.85;;;15.00;;
18228;SDS011;9239;50.932;3.142;2023-05-13T11:19:21;17.95;;;16.23;;
18228;SDS011;9239;50.932;3.142;2023-05-13T11:21:49;18.02;;;16.17;;
18228;SDS011;9239;50.932;3.142;2023-05-13T11:24:18;20.00;;;17.10;;
18228;SDS011;9239;50.932;3.142;2023-05-13T11:26:46;18.35;;;15.23;;
18228;SDS011;9239;50.932;3.142;2023-05-13T11:29:14;15.30;;;13.63;;
18228;SDS011;9239;50.932;3.142;2023-05-13T11:31:56;16.42;;;14.77;;
18228;SDS011;9239;50.932;3.142;2023-05-13T11:34:25;12.68;;;11.15;;
18228;SDS011;9239;50.932;3.142;2023-05-13T11:36:54;18.42;;;15.73;;
18228;SDS011;9239;50.932;3.142;2023-05-13T11:39:23;17.42;;;15.38;;
18228;SDS011;9239;50.932;3.142;2023-05-13T11:41:52;18.55;;;16.58;;
18228;SDS011;9239;50.932;3.142;2023-05-13T11:44:22;17.48;;;15.77;;
18228;SDS011;9239;50.932;3.142;2023-05-13T11:46:51;19.95;;;15.57;;
18228;SDS011;9239;50.932;3.142;2023-05-13T11:49:31;17.30;;;15.35;;
18228;SDS011;9239;50.932;3.142;2023-05-13T11:51:58;18.17;;;14.38;;
18228;SDS011;9239;50.932;3.142;2023-05-13T11:54:26;17.75;;;15.60;;
18228;SDS011;9239;50.932;3.142;2023-05-13T11:56:53;18.02;;;15.40;;
18228;SDS011;9239;50.932;3.142;2023-05-13T11:59:20;17.50;;;15.55;;
18228;SDS011;9239;50.932;3.142;2023-05-13T12:01:57;17.70;;;15.82;;
18228;SDS011;9239;50.932;3.142;2023-05-13T12:04:26;16.92;;;15.02;;
18228;SDS011;9239;50.932;3.142;2023-05-13T12:06:55;19.42;;;17.15;;
18228;SDS011;9239;50.932;3.142;2023-05-13T12:09:22;17.30;;;15.57;;
18228;SDS011;9239;50.932;3.142;2023-05-13T12:11:50;18.88;;;15.43;;
18228;SDS011;9239;50.932;3.142;2023-05-13T12:14:18;16.88;;;14.70;;
18228;SDS011;9239;50.932;3.142;2023-05-13T12:16:45;19.25;;;15.55;;
18228;SDS011;9239;50.932;3.142;2023-05-13T12:19:13;17.48;;;12.55;;
18228;SDS011;9239;50.932;3.142;2023-05-13T12:21:40;16.33;;;14.30;;
18228;SDS011;9239;50.932;3.142;2023-05-13T12:24:18;18.55;;;15.05;;
18228;SDS011;9239;50.932;3.142;2023-05-13T12:26:46;15.95;;;13.32;;
18228;SDS011;9239;50.932;3.142;2023-05-13T12:29:14;19.27;;;15.30;;
18228;SDS011;9239;50.932;3.142;2023-05-13T12:31:41;18.35;;;15.57;;
18228;SDS011;9239;50.932;3.142;2023-05-13T12:34:30;16.45;;;14.98;;
18228;SDS011;9239;50.932;3.142;2023-05-13T12:37:07;15.80;;;14.10;;
18228;SDS011;9239;50.932;3.142;2023-05-13T12:39:37;16.45;;;14.82;;
18228;SDS011;9239;50.932;3.142;2023-05-13T12:42:05;19.52;;;16.45;;
18228;SDS011;9239;50.932;3.142;2023-05-13T12:44:40;19.38;;;15.40;;
18228;SDS011;9239;50.932;3.142;2023-05-13T12:47:08;17.08;;;15.40;;
18228;SDS011;9239;50.932;3.142;2023-05-13T12:49:49;17.58;;;15.38;;
18228;SDS011;9239;50.932;3.142;2023-05-13T12:52:17;19.10;;;16.85;;
18228;SDS011;9239;50.932;3.142;2023-05-13T12:54:46;16.10;;;14.52;;
18228;SDS011;9239;50.932;3.142;2023-05-13T12:57:14;21.20;;;16.60;;
18228;SDS011;9239;50.932;3.142;2023-05-13T12:59:42;17.42;;;15.68;;
18228;SDS011;9239;50.932;3.142;2023-05-13T13:02:10;17.67;;;15.48;;
18228;SDS011;9239;50.932;3.142;2023-05-13T13:04:38;18.20;;;16.42;;
18228;SDS011;9239;50.932;3.142;2023-05-13T13:07:05;17.90;;;15.45;;
18228;SDS011;9239;50.932;3.142;2023-05-13T13:09:36;17.95;;;14.88;;
18228;SDS011;9239;50.932;3.142;2023-05-13T13:12:05;20.80;;;15.38;;
18228;SDS011;9239;50.932;3.142;2023-05-13T13:14:32;25.42;;;14.93;;
18228;SDS011;9239;50.932;3.142;2023-05-13T13:16:59;16.40;;;14.73;;
18228;SDS011;9239;50.932;3.142;2023-05-13T13:19:26;19.90;;;14.90;;
18228;SDS011;9239;50.932;3.142;2023-05-13T13:21:53;16.25;;;14.52;;
18228;SDS011;9239;50.932;3.142;2023-05-13T13:24:20;15.90;;;14.30;;
18228;SDS011;9239;50.932;3.142;2023-05-13T13:26:47;15.20;;;13.60;;
18228;SDS011;9239;50.932;3.142;2023-05-13T13:29:16;19.48;;;13.75;;
18228;SDS011;9239;50.932;3.142;2023-05-13T13:31:43;16.40;;;14.70;;
18228;SDS011;9239;50.932;3.142;2023-05-13T13:34:11;21.52;;;14.80;;
18228;SDS011;9239;50.932;3.142;2023-05-13T13:36:38;16.40;;;13.48;;
18228;SDS011;9239;50.932;3.142;2023-05-13T13:39:05;16.15;;;13.02;;
18228;SDS011;9239;50.932;3.142;2023-05-13T13:41:32;16.80;;;14.25;;
18228;SDS011;9239;50.932;3.142;2023-05-13T13:43:59;19.45;;;14.05;;
18228;SDS011;9239;50.932;3.142;2023-05-13T13:46:27;15.35;;;12.60;;
18228;SDS011;9239;50.932;3.142;2023-05-13T13:48:54;16.23;;;13.23;;
18228;SDS011;9239;50.932;3.142;2023-05-13T13:51:21;14.38;;;12.98;;
18228;SDS011;9239;50.932;3.142;2023-05-13T13:53:48;14.93;;;13.35;;
18228;SDS011;9239;50.932;3.142;2023-05-13T13:56:15;14.05;;;12.70;;
18228;SDS011;9239;50.932;3.142;2023-05-13T13:58:42;14.80;;;13.48;;
18228;SDS011;9239;50.932;3.142;2023-05-13T14:01:09;15.63;;;13.20;;
18228;SDS011;9239;50.932;3.142;2023-05-13T14:03:38;16.35;;;14.70;;
18228;SDS011;9239;50.932;3.142;2023-05-13T14:06:05;16.33;;;14.55;;
18228;SDS011;9239;50.932;3.142;2023-05-13T14:08:32;16.70;;;14.27;;
18228;SDS011;9239;50.932;3.142;2023-05-13T14:10:59;18.00;;;15.43;;
18228;SDS011;9239;50.932;3.142;2023-05-13T14:13:26;17.30;;;14.68;;
18228;SDS011;9239;50.932;3.142;2023-05-13T14:15:53;14.23;;;12.73;;
18228;SDS011;9239;50.932;3.142;2023-05-13T14:18:20;16.80;;;13.18;;
18228;SDS011;9239;50.932;3.142;2023-05-13T14:20:48;17.45;;;14.00;;
18228;SDS011;9239;50.932;3.142;2023-05-13T14:23:16;16.50;;;14.75;;
18228;SDS011;9239;50.932;3.142;2023-05-13T14:25:43;16.15;;;12.95;;
18228;SDS011;9239;50.932;3.142;2023-05-13T14:28:10;15.32;;;13.75;;
18228;SDS011;9239;50.932;3.142;2023-05-13T14:30:39;16.02;;;14.35;;
18228;SDS011;9239;50.932;3.142;2023-05-13T14:33:06;16.90;;;15.20;;
18228;SDS011;9239;50.932;3.142;2023-05-13T14:35:33;20.27;;;15.50;;
18228;SDS011;9239;50.932;3.142;2023-05-13T14:38:02;17.83;;;14.07;;
18228;SDS011;9239;50.932;3.142;2023-05-13T14:40:28;17.52;;;13.70;;
18228;SDS011;9239;50.932;3.142;2023-05-13T14:42:58;16.20;;;14.50;;